Bordeaux, Wyoming
Current Conditions -  °F | °C
As of 8:15 PM on Wednesday 22 Oct 2014 (Local Time) from KGUR Reporting Station
Clear Clear  
Wind Chill: 13°   Ceiling: Unl
Heat Index: 13°   Visibility: 10mi
Dew Point: -7°   Wind: 5mph
Humidity: 24%   Direction: 290°WNW
Pressure: 30.09"   Gusts: NA
Location:  42.0178°N, 105.098°W
Report Text: KGUR 230215Z AUTO 29004KT 10SM CLR 13/M07 A3009 RMK AO2 T01301071 PWINO
Loading
Personal Weather Stations






























Interactive Weather Map
Tropical Storm Tracking
New forecast layout! Learn more

10-Day Weather Forecast

Advertisements
Track Severe Weather on mobile